Time;durP1;ratioP1;P1;durP2;ratioP2;P2;SDS_P1;SDS_P2;PMS_P1;PMS_P2;Temp;Humidity;BMP_temperature;BMP_pressure;BME280_temperature;BME280_humidity;BME280_pressure;Samples;Min_cycle;Max_cycle;Signal;HPM_P1;HPM_P2
2023/07/10 00:00:18;;;;;;;1.70;1.37;;;;;;;;;;5091471;28;20031;-58
2023/07/10 00:02:45;;;;;;;2.47;1.40;;;;;;;;;;5091615;28;20090;-58
2023/07/10 00:05:15;;;;;;;11.03;2.10;;;;;;;;;;5089102;28;20052;-58
2023/07/10 00:07:42;;;;;;;1.80;1.23;;;;;;;;;;5078482;28;20023;-59
2023/07/10 00:10:13;;;;;;;2.00;1.40;;;;;;;;;;5069313;28;20475;-58
2023/07/10 00:12:41;;;;;;;7.40;1.93;;;;;;;;;;5086428;28;20053;-58
2023/07/10 00:15:18;;;;;;;2.27;1.57;;;;;;;;;;5085455;28;20032;-58
2023/07/10 00:17:45;;;;;;;1.50;1.40;;;;;;;;;;5073765;28;20082;-58
2023/07/10 00:20:17;;;;;;;4.10;2.20;;;;;;;;;;5084464;28;20372;-58
2023/07/10 00:22:44;;;;;;;2.07;1.53;;;;;;;;;;5088176;28;20090;-58
2023/07/10 00:25:21;;;;;;;2.70;1.60;;;;;;;;;;5090411;28;20043;-58
2023/07/10 00:27:49;;;;;;;1.97;1.50;;;;;;;;;;5092625;28;20024;-58
2023/07/10 00:30:28;;;;;;;3.47;1.63;;;;;;;;;;5087890;28;20028;-58
2023/07/10 00:32:58;;;;;;;3.57;2.13;;;;;;;;;;5086284;28;20031;-59
2023/07/10 00:35:27;;;;;;;1.50;1.27;;;;;;;;;;5085578;28;20028;-58
2023/07/10 00:38:01;;;;;;;2.00;1.00;;;;;;;;;;5087237;28;20107;-58
2023/07/10 00:40:37;;;;;;;1.10;0.90;;;;;;;;;;5090074;28;20040;-58
2023/07/10 00:43:07;;;;;;;3.87;1.77;;;;;;;;;;5092541;28;20111;-58
2023/07/10 00:45:34;;;;;;;3.50;1.70;;;;;;;;;;5094646;28;20028;-59
2023/07/10 00:48:08;;;;;;;3.60;1.37;;;;;;;;;;5095180;28;20016;-58
2023/07/10 00:50:40;;;;;;;4.23;1.50;;;;;;;;;;5095443;28;20020;-58
2023/07/10 00:53:13;;;;;;;2.50;1.63;;;;;;;;;;5084749;28;20027;-58
2023/07/10 00:55:42;;;;;;;2.63;1.63;;;;;;;;;;5090674;28;20035;-58
2023/07/10 00:58:19;;;;;;;1.93;1.40;;;;;;;;;;5077436;28;20086;-58
2023/07/10 01:01:06;;;;;;;4.30;2.23;;;;;;;;;;5080994;28;20039;-58
2023/07/10 01:03:40;;;;;;;3.50;2.50;;;;;;;;;;5095727;28;20035;-58
2023/07/10 01:06:23;;;;;;;6.07;2.37;;;;;;;;;;5093652;28;20036;-59
2023/07/10 01:08:53;;;;;;;2.53;1.80;;;;;;;;;;5095043;28;20111;-57
2023/07/10 01:11:21;;;;;;;3.40;2.03;;;;;;;;;;5095324;28;20035;-59
2023/07/10 01:13:50;;;;;;;4.70;1.87;;;;;;;;;;5093934;28;20019;-59
2023/07/10 01:16:17;;;;;;;3.33;1.73;;;;;;;;;;5090551;28;20059;-58
2023/07/10 01:18:45;;;;;;;2.13;1.43;;;;;;;;;;5088796;28;20020;-60
2023/07/10 01:21:25;;;;;;;2.53;1.77;;;;;;;;;;5074192;28;20036;-59
2023/07/10 01:23:53;;;;;;;2.00;1.50;;;;;;;;;;5078537;28;20471;-58
2023/07/10 01:26:25;;;;;;;4.03;2.47;;;;;;;;;;5093344;28;20067;-58
2023/07/10 01:28:54;;;;;;;4.27;2.43;;;;;;;;;;5091482;28;20020;-58
2023/07/10 01:31:24;;;;;;;4.47;2.37;;;;;;;;;;5090675;28;20016;-58
2023/07/10 01:33:58;;;;;;;3.87;1.87;;;;;;;;;;5095733;28;20035;-58
2023/07/10 01:36:27;;;;;;;2.17;1.58;;;;;;;;;;5080948;28;20056;-59
2023/07/10 01:39:03;;;;;;;2.47;1.53;;;;;;;;;;5082444;28;20032;-58
2023/07/10 01:41:33;;;;;;;3.93;2.33;;;;;;;;;;5079816;28;20074;-59
2023/07/10 01:43:59;;;;;;;3.00;2.20;;;;;;;;;;5069134;28;20091;-59
2023/07/10 01:46:27;;;;;;;2.23;1.70;;;;;;;;;;5081132;28;20081;-58
2023/07/10 01:48:59;;;;;;;3.20;1.93;;;;;;;;;;5093951;28;20026;-58
2023/07/10 01:51:26;;;;;;;2.67;1.67;;;;;;;;;;5094051;28;20024;-58
2023/07/10 01:53:53;;;;;;;3.80;2.87;;;;;;;;;;5079246;28;20024;-58
2023/07/10 01:56:22;;;;;;;4.23;2.40;;;;;;;;;;5082531;28;20036;-58
2023/07/10 01:58:49;;;;;;;3.50;2.43;;;;;;;;;;5092164;28;20032;-57
2023/07/10 02:01:16;;;;;;;8.60;1.87;;;;;;;;;;5089743;28;20028;-58
2023/07/10 02:03:43;;;;;;;3.03;1.97;;;;;;;;;;5089847;28;20498;-58
2023/07/10 02:06:09;;;;;;;1.97;1.47;;;;;;;;;;5089639;28;20100;-58
2023/07/10 02:08:36;;;;;;;2.13;1.70;;;;;;;;;;5090608;28;20066;-58
2023/07/10 02:23:02;;;;;;;4.97;2.60;;;;;;;;;;5066180;27;2231334;-59
2023/07/10 02:25:28;;;;;;;5.67;2.93;;;;;;;;;;5113822;27;20386;-61
2023/07/10 02:27:55;;;;;;;4.40;2.83;;;;;;;;;;5103654;28;20028;-60
2023/07/10 02:30:22;;;;;;;6.23;2.97;;;;;;;;;;5110273;28;20071;-60
2023/07/10 02:32:52;;;;;;;3.30;2.70;;;;;;;;;;5124721;27;20031;-61
2023/07/10 02:35:18;;;;;;;4.50;2.73;;;;;;;;;;5129628;28;20023;-60
2023/07/10 02:37:45;;;;;;;5.87;3.30;;;;;;;;;;5130377;27;20483;-60
2023/07/10 02:40:12;;;;;;;3.47;2.67;;;;;;;;;;5110341;27;20027;-60
2023/07/10 02:42:39;;;;;;;5.17;2.93;;;;;;;;;;5123163;28;20034;-60
2023/07/10 02:45:06;;;;;;;4.73;3.10;;;;;;;;;;5124810;27;20035;-60
2023/07/10 02:47:33;;;;;;;3.87;2.97;;;;;;;;;;5106155;28;20055;-60
2023/07/10 02:49:59;;;;;;;3.63;2.73;;;;;;;;;;5124648;28;20015;-60
2023/07/10 02:52:26;;;;;;;3.90;2.53;;;;;;;;;;5122869;28;20477;-60
2023/07/10 02:54:53;;;;;;;3.50;2.50;;;;;;;;;;5104367;28;20470;-60
2023/07/10 02:57:20;;;;;;;3.37;2.37;;;;;;;;;;5107821;28;20427;-60
2023/07/10 02:59:47;;;;;;;3.50;2.27;;;;;;;;;;5124367;27;20020;-60
2023/07/10 03:02:14;;;;;;;2.87;1.87;;;;;;;;;;5128006;28;20024;-60
2023/07/10 03:04:40;;;;;;;2.80;2.00;;;;;;;;;;5108204;27;20035;-60
2023/07/10 03:07:07;;;;;;;2.90;2.00;;;;;;;;;;5107394;28;20016;-60
2023/07/10 03:09:34;;;;;;;3.73;2.50;;;;;;;;;;5100374;28;20107;-60
2023/07/10 03:12:01;;;;;;;3.00;2.10;;;;;;;;;;5103264;28;20024;-60
2023/07/10 03:14:27;;;;;;;2.67;1.77;;;;;;;;;;5103573;28;20027;-57
2023/07/10 03:16:54;;;;;;;2.57;1.93;;;;;;;;;;5103410;28;20019;-58
2023/07/10 03:19:21;;;;;;;2.10;1.47;;;;;;;;;;5106636;28;20028;-58
2023/07/10 03:21:48;;;;;;;3.83;1.70;;;;;;;;;;5107306;28;20022;-57
2023/07/10 03:24:14;;;;;;;12.70;1.77;;;;;;;;;;5094785;28;20032;-58
2023/07/10 03:26:41;;;;;;;3.43;1.37;;;;;;;;;;5095240;28;20028;-58
2023/07/10 03:29:10;;;;;;;7.57;1.33;;;;;;;;;;5095161;28;20023;-58
2023/07/10 03:31:37;;;;;;;12.10;2.03;;;;;;;;;;5091462;28;20036;-58
2023/07/10 03:34:04;;;;;;;1.20;1.00;;;;;;;;;;5089534;28;20024;-58
2023/07/10 03:36:31;;;;;;;1.23;1.07;;;;;;;;;;5089305;28;20036;-57
2023/07/10 03:38:58;;;;;;;1.33;1.00;;;;;;;;;;5089495;28;20052;-58
2023/07/10 03:41:25;;;;;;;3.00;0.93;;;;;;;;;;5092174;28;20024;-58
2023/07/10 03:43:53;;;;;;;1.90;1.13;;;;;;;;;;5094677;28;20169;-58
2023/07/10 03:46:20;;;;;;;2.83;0.90;;;;;;;;;;5094783;28;20047;-57
2023/07/10 03:48:50;;;;;;;1.53;1.20;;;;;;;;;;5094692;28;20024;-57
2023/07/10 03:51:17;;;;;;;2.60;1.30;;;;;;;;;;5094462;28;20115;-58
2023/07/10 03:53:44;;;;;;;4.20;2.00;;;;;;;;;;5091058;28;20020;-57
2023/07/10 03:56:11;;;;;;;2.30;1.47;;;;;;;;;;5089396;28;20146;-57
2023/07/10 03:58:40;;;;;;;2.43;1.20;;;;;;;;;;5088943;28;20420;-57
2023/07/10 04:01:07;;;;;;;3.50;1.53;;;;;;;;;;5089239;28;20026;-58
2023/07/10 04:03:35;;;;;;;2.20;1.27;;;;;;;;;;5091082;28;20028;-57
2023/07/10 04:06:02;;;;;;;2.63;1.43;;;;;;;;;;5094553;28;20048;-58
2023/07/10 04:08:30;;;;;;;2.57;1.40;;;;;;;;;;5094044;28;20035;-57
2023/07/10 04:10:58;;;;;;;2.77;1.57;;;;;;;;;;5104650;28;20106;-60
2023/07/10 04:13:25;;;;;;;1.73;1.30;;;;;;;;;;5106787;28;20028;-61
2023/07/10 04:16:11;;;;;;;1.83;1.33;;;;;;;;;;5094801;28;20047;-58
2023/07/10 04:18:39;;;;;;;1.30;1.03;;;;;;;;;;5089037;28;20032;-58
2023/07/10 04:21:11;;;;;;;3.23;1.33;;;;;;;;;;5088233;28;20359;-58
2023/07/10 04:23:38;;;;;;;2.77;1.53;;;;;;;;;;5088838;28;20036;-58
2023/07/10 04:26:04;;;;;;;3.07;1.57;;;;;;;;;;5092686;28;20054;-58
2023/07/10 04:28:31;;;;;;;3.50;1.70;;;;;;;;;;5092854;28;20407;-58
2023/07/10 04:30:58;;;;;;;8.77;1.87;;;;;;;;;;5093984;28;20474;-58
2023/07/10 04:33:24;;;;;;;1.63;1.30;;;;;;;;;;5093593;28;20026;-58
2023/07/10 04:35:56;;;;;;;2.57;1.93;;;;;;;;;;5109484;28;20090;-58
2023/07/10 04:38:26;;;;;;;2.30;1.50;;;;;;;;;;5111374;28;20466;-58
2023/07/10 04:41:03;;;;;;;2.27;1.63;;;;;;;;;;5105359;28;20508;-58
2023/07/10 04:43:31;;;;;;;1.13;0.93;;;;;;;;;;5088894;28;20050;-58
2023/07/10 04:45:59;;;;;;;1.47;1.27;;;;;;;;;;5092400;28;20527;-57
2023/07/10 04:48:26;;;;;;;4.30;1.80;;;;;;;;;;5108549;28;20095;-58
2023/07/10 04:50:54;;;;;;;1.80;1.30;;;;;;;;;;5112993;28;20035;-58
2023/07/10 04:53:21;;;;;;;2.57;1.43;;;;;;;;;;5113852;28;20053;-58
2023/07/10 04:55:49;;;;;;;4.00;2.10;;;;;;;;;;5111150;28;20045;-57
2023/07/10 04:58:15;;;;;;;2.40;1.90;;;;;;;;;;5113707;28;20051;-58
2023/07/10 05:00:43;;;;;;;2.00;1.30;;;;;;;;;;5107034;28;20015;-58
2023/07/10 05:03:10;;;;;;;3.37;2.07;;;;;;;;;;5107370;28;20032;-58
2023/07/10 05:05:37;;;;;;;2.17;1.60;;;;;;;;;;5095487;28;20071;-57
2023/07/10 05:08:03;;;;;;;4.03;2.30;;;;;;;;;;5088022;28;20138;-57
2023/07/10 05:10:30;;;;;;;2.33;1.60;;;;;;;;;;5091302;28;20024;-58
2023/07/10 05:12:57;;;;;;;4.53;2.57;;;;;;;;;;5113490;28;20024;-57
2023/07/10 05:15:24;;;;;;;6.03;2.10;;;;;;;;;;5103642;28;20016;-57
2023/07/10 05:17:51;;;;;;;2.03;1.47;;;;;;;;;;5092952;28;20031;-57
2023/07/10 05:20:17;;;;;;;4.13;2.23;;;;;;;;;;5101655;28;20112;-57
2023/07/10 05:22:44;;;;;;;1.63;1.20;;;;;;;;;;5091135;28;20579;-57
2023/07/10 05:25:11;;;;;;;2.57;1.70;;;;;;;;;;5094778;28;20062;-57
2023/07/10 05:27:38;;;;;;;3.67;1.90;;;;;;;;;;5107814;27;20023;-57
2023/07/10 05:30:05;;;;;;;4.30;2.13;;;;;;;;;;5100461;28;20062;-57
2023/07/10 05:32:32;;;;;;;2.43;1.70;;;;;;;;;;5105568;28;20023;-57
2023/07/10 05:34:59;;;;;;;3.73;2.30;;;;;;;;;;5107287;28;20386;-57
2023/07/10 05:37:26;;;;;;;1.67;1.20;;;;;;;;;;5092579;28;20054;-57
2023/07/10 05:39:53;;;;;;;3.07;2.10;;;;;;;;;;5096980;28;20031;-57
2023/07/10 05:42:20;;;;;;;3.53;2.17;;;;;;;;;;5097993;28;20035;-57
2023/07/10 05:44:46;;;;;;;7.90;2.00;;;;;;;;;;5093855;28;20024;-57
2023/07/10 05:47:13;;;;;;;3.70;1.77;;;;;;;;;;5107302;28;20043;-57
2023/07/10 05:49:40;;;;;;;2.27;1.50;;;;;;;;;;5104663;28;20023;-57
2023/07/10 05:52:07;;;;;;;3.63;1.73;;;;;;;;;;5099431;28;20043;-57
2023/07/10 05:54:34;;;;;;;3.87;2.03;;;;;;;;;;5106534;28;20030;-57
2023/07/10 05:57:01;;;;;;;5.97;1.80;;;;;;;;;;5092200;28;20028;-57
2023/07/10 05:59:28;;;;;;;2.10;1.43;;;;;;;;;;5092420;28;20032;-57
2023/07/10 06:01:56;;;;;;;3.10;1.93;;;;;;;;;;5094019;28;20023;-57
2023/07/10 06:04:23;;;;;;;1.60;1.20;;;;;;;;;;5112621;28;20034;-57
2023/07/10 06:06:50;;;;;;;2.53;1.63;;;;;;;;;;5091389;28;20089;-57
2023/07/10 06:09:17;;;;;;;1.37;1.20;;;;;;;;;;5087030;28;20024;-57
2023/07/10 06:11:44;;;;;;;9.97;2.47;;;;;;;;;;5094950;28;20035;-57
2023/07/10 06:14:10;;;;;;;2.40;1.57;;;;;;;;;;5086932;28;20026;-57
2023/07/10 06:16:37;;;;;;;2.23;1.73;;;;;;;;;;5088137;28;20143;-57
2023/07/10 06:19:04;;;;;;;2.50;1.73;;;;;;;;;;5092162;28;20028;-57
2023/07/10 06:21:31;;;;;;;5.37;1.80;;;;;;;;;;5097035;28;20016;-57
2023/07/10 06:23:58;;;;;;;1.97;1.57;;;;;;;;;;5092117;28;20039;-57
2023/07/10 06:26:25;;;;;;;1.77;1.23;;;;;;;;;;5105651;28;20024;-57
2023/07/10 06:28:51;;;;;;;1.57;1.27;;;;;;;;;;5111662;28;20030;-57
2023/07/10 06:31:18;;;;;;;3.70;1.60;;;;;;;;;;5104188;28;20362;-57
2023/07/10 06:33:45;;;;;;;1.00;0.90;;;;;;;;;;5107044;28;20027;-57
2023/07/10 06:36:12;;;;;;;2.83;1.77;;;;;;;;;;5091074;28;20024;-57
2023/07/10 06:38:39;;;;;;;4.90;3.00;;;;;;;;;;5086569;28;20024;-57
2023/07/10 06:41:07;;;;;;;4.47;1.20;;;;;;;;;;5093844;28;20378;-57
2023/07/10 06:43:35;;;;;;;2.17;1.60;;;;;;;;;;5091817;28;20045;-57
2023/07/10 06:46:02;;;;;;;2.03;1.40;;;;;;;;;;5105475;28;20031;-57
2023/07/10 06:48:29;;;;;;;3.93;2.27;;;;;;;;;;5112447;28;20116;-57
2023/07/10 06:50:56;;;;;;;4.30;2.03;;;;;;;;;;5102861;28;20381;-57
2023/07/10 06:53:24;;;;;;;1.83;1.23;;;;;;;;;;5086430;28;20409;-57
2023/07/10 06:55:58;;;;;;;1.97;1.50;;;;;;;;;;5097611;28;20035;-57
2023/07/10 06:58:25;;;;;;;2.90;2.07;;;;;;;;;;5108971;28;20023;-57
2023/07/10 07:00:52;;;;;;;2.30;1.50;;;;;;;;;;5106524;28;20035;-57
2023/07/10 07:03:19;;;;;;;2.63;1.97;;;;;;;;;;5115465;28;20359;-57
2023/07/10 07:05:46;;;;;;;2.07;1.37;;;;;;;;;;5106013;28;20027;-57
2023/07/10 07:08:13;;;;;;;2.70;1.97;;;;;;;;;;5095502;28;20031;-57
2023/07/10 07:10:43;;;;;;;2.23;1.57;;;;;;;;;;5098381;28;20036;-57
2023/07/10 07:13:11;;;;;;;1.60;1.30;;;;;;;;;;5095444;28;20087;-57
2023/07/10 07:15:37;;;;;;;5.27;1.70;;;;;;;;;;5097549;28;20031;-57
2023/07/10 07:18:05;;;;;;;1.83;1.53;;;;;;;;;;5110429;28;20031;-57
2023/07/10 07:20:32;;;;;;;3.13;1.53;;;;;;;;;;5105058;28;20031;-57
2023/07/10 07:22:59;;;;;;;1.20;1.00;;;;;;;;;;5110164;28;20073;-57
2023/07/10 07:25:26;;;;;;;1.37;1.00;;;;;;;;;;5104962;28;20044;-57
2023/07/10 07:27:53;;;;;;;1.90;1.40;;;;;;;;;;5095225;28;20016;-57
2023/07/10 07:30:20;;;;;;;2.50;1.80;;;;;;;;;;5103313;28;20016;-57
2023/07/10 07:32:47;;;;;;;2.70;1.60;;;;;;;;;;5115597;28;20081;-56
2023/07/10 07:35:14;;;;;;;2.53;1.57;;;;;;;;;;5107527;28;20059;-57
2023/07/10 07:37:41;;;;;;;2.17;1.33;;;;;;;;;;5089947;28;20462;-57
2023/07/10 07:40:09;;;;;;;4.10;1.63;;;;;;;;;;5096334;28;20023;-57
2023/07/10 07:42:36;;;;;;;2.67;1.50;;;;;;;;;;5109703;28;20036;-57
2023/07/10 07:45:03;;;;;;;2.23;1.63;;;;;;;;;;5108976;28;20019;-57
2023/07/10 07:47:30;;;;;;;2.10;1.30;;;;;;;;;;5113618;28;20485;-57
2023/07/10 07:49:58;;;;;;;2.03;1.37;;;;;;;;;;5109799;28;20529;-57
2023/07/10 07:52:24;;;;;;;2.30;1.70;;;;;;;;;;5094611;28;20040;-57
2023/07/10 07:54:51;;;;;;;4.87;2.17;;;;;;;;;;5094643;28;20046;-57
2023/07/10 07:57:18;;;;;;;2.13;1.60;;;;;;;;;;5094661;28;20020;-57
2023/07/10 07:59:45;;;;;;;2.97;1.53;;;;;;;;;;5090189;28;20032;-57
2023/07/10 08:02:12;;;;;;;2.43;1.60;;;;;;;;;;5088867;28;20477;-58
2023/07/10 08:04:38;;;;;;;2.13;1.57;;;;;;;;;;5090322;28;20031;-56
2023/07/10 08:07:05;;;;;;;8.67;2.10;;;;;;;;;;5109397;28;20031;-57
2023/07/10 08:09:32;;;;;;;4.30;2.60;;;;;;;;;;5109563;28;20027;-57
2023/07/10 08:12:00;;;;;;;21.13;1.80;;;;;;;;;;5114576;28;20043;-57
2023/07/10 08:14:27;;;;;;;2.10;1.53;;;;;;;;;;5112726;28;20378;-57
2023/07/10 08:16:54;;;;;;;1.57;1.10;;;;;;;;;;5094327;28;20020;-57
2023/07/10 08:19:21;;;;;;;4.17;2.37;;;;;;;;;;5094420;28;20107;-57
2023/07/10 08:21:48;;;;;;;1.60;1.47;;;;;;;;;;5090962;28;20036;-56
2023/07/10 08:24:15;;;;;;;2.00;1.47;;;;;;;;;;5088555;28;20478;-57
2023/07/10 08:26:42;;;;;;;1.80;1.47;;;;;;;;;;5108192;28;20036;-57
2023/07/10 08:29:31;;;;;;;2.60;1.60;;;;;;;;;;5108023;28;20081;-57
2023/07/10 08:31:59;;;;;;;3.03;1.80;;;;;;;;;;5112474;28;20027;-57
2023/07/10 08:34:27;;;;;;;2.10;1.60;;;;;;;;;;5113577;28;20031;-57
2023/07/10 08:36:55;;;;;;;2.53;1.77;;;;;;;;;;5093858;28;20024;-57
2023/07/10 08:39:23;;;;;;;1.53;1.10;;;;;;;;;;5093829;28;20028;-57
2023/07/10 08:41:52;;;;;;;3.50;1.30;;;;;;;;;;5094871;28;20467;-57
2023/07/10 08:44:19;;;;;;;6.43;1.60;;;;;;;;;;5100907;28;20492;-57
2023/07/10 08:46:50;;;;;;;0.80;0.63;;;;;;;;;;5108725;28;20415;-57
2023/07/10 08:49:26;;;;;;;2.37;0.90;;;;;;;;;;5079071;28;20421;-57
2023/07/10 08:52:06;;;;;;;2.37;1.27;;;;;;;;;;5099867;28;20044;-57
2023/07/10 08:54:35;;;;;;;2.93;1.43;;;;;;;;;;5095617;28;20032;-57
2023/07/10 08:57:06;;;;;;;2.23;0.97;;;;;;;;;;5112745;28;20478;-56
2023/07/10 09:00:01;;;;;;;1.30;1.00;;;;;;;;;;5099795;28;20494;-57
2023/07/10 09:02:41;;;;;;;6.50;1.23;;;;;;;;;;5111131;28;20549;-57
2023/07/10 09:05:11;;;;;;;0.83;0.60;;;;;;;;;;5094595;28;20036;-57
2023/07/10 09:07:43;;;;;;;0.90;0.70;;;;;;;;;;5087178;28;20070;-57
2023/07/10 09:10:36;;;;;;;2.00;1.20;;;;;;;;;;5101045;28;20032;-57
2023/07/10 09:13:03;;;;;;;1.67;1.20;;;;;;;;;;5084628;28;20051;-58
2023/07/10 09:15:36;;;;;;;1.03;0.80;;;;;;;;;;5109595;28;20023;-56
2023/07/10 09:18:29;;;;;;;3.10;1.17;;;;;;;;;;5113064;28;20028;-57
2023/07/10 09:21:01;;;;;;;0.93;0.77;;;;;;;;;;5093552;28;20038;-57
2023/07/10 09:23:34;;;;;;;1.30;1.10;;;;;;;;;;5109611;28;20063;-57
2023/07/10 09:26:09;;;;;;;1.40;0.90;;;;;;;;;;5093057;28;20042;-57
2023/07/10 09:28:38;;;;;;;7.53;1.03;;;;;;;;;;5093290;28;20061;-56
2023/07/10 09:31:20;;;;;;;0.73;0.50;;;;;;;;;;5095698;28;20040;-57
2023/07/10 09:33:59;;;;;;;1.47;0.90;;;;;;;;;;5089562;28;20090;-56
2023/07/10 09:36:26;;;;;;;3.50;0.90;;;;;;;;;;5105652;28;20362;-57
2023/07/10 09:38:53;;;;;;;1.00;0.70;;;;;;;;;;5109927;28;20088;-57
2023/07/10 09:41:24;;;;;;;1.43;1.13;;;;;;;;;;5099190;28;20111;-57
2023/07/10 09:44:03;;;;;;;3.70;1.07;;;;;;;;;;5093641;28;20047;-57
2023/07/10 09:46:38;;;;;;;1.37;1.00;;;;;;;;;;5092791;28;20067;-56
2023/07/10 09:49:11;;;;;;;6.90;1.00;;;;;;;;;;5112281;28;20521;-57
2023/07/10 09:51:40;;;;;;;3.23;1.40;;;;;;;;;;5091942;28;20036;-57
2023/07/10 09:54:07;;;;;;;1.80;1.23;;;;;;;;;;5103643;28;20577;-58
2023/07/10 09:56:38;;;;;;;3.67;1.10;;;;;;;;;;5100333;28;20051;-57
2023/07/10 09:59:27;;;;;;;1.20;0.83;;;;;;;;;;5085571;28;20048;-57
2023/07/10 10:01:58;;;;;;;1.40;1.17;;;;;;;;;;5094898;28;20032;-57
2023/07/10 10:04:29;;;;;;;3.97;0.93;;;;;;;;;;5112661;28;20024;-57
2023/07/10 10:07:04;;;;;;;10.40;1.73;;;;;;;;;;5096395;28;20073;-56
2023/07/10 10:09:35;;;;;;;3.23;0.93;;;;;;;;;;5112365;28;20531;-57
2023/07/10 10:12:04;;;;;;;1.07;0.83;;;;;;;;;;5107408;28;20458;-57
2023/07/10 10:14:37;;;;;;;2.33;1.37;;;;;;;;;;5086865;28;20437;-57
2023/07/10 10:17:08;;;;;;;6.50;0.97;;;;;;;;;;5101380;28;20025;-56
2023/07/10 10:19:41;;;;;;;7.77;1.87;;;;;;;;;;5086742;28;20550;-57
2023/07/10 10:22:11;;;;;;;2.30;1.20;;;;;;;;;;5091775;28;20036;-56
2023/07/10 10:24:38;;;;;;;1.47;0.77;;;;;;;;;;5111182;28;20028;-57
2023/07/10 10:27:24;;;;;;;1.67;1.27;;;;;;;;;;5095880;28;20027;-56
2023/07/10 10:29:51;;;;;;;2.60;1.10;;;;;;;;;;5074284;28;20028;-56
2023/07/10 10:32:21;;;;;;;1.93;1.33;;;;;;;;;;5097262;28;20035;-57
2023/07/10 10:35:08;;;;;;;1.43;0.77;;;;;;;;;;5101522;28;20334;-57
2023/07/10 10:37:35;;;;;;;2.50;1.67;;;;;;;;;;5098433;28;20032;-57
2023/07/10 10:40:14;;;;;;;1.27;1.10;;;;;;;;;;5111300;28;20427;-57
2023/07/10 10:42:59;;;;;;;2.53;1.80;;;;;;;;;;5102341;28;20369;-57
2023/07/10 10:45:26;;;;;;;2.60;1.27;;;;;;;;;;5110589;28;20102;-57
2023/07/10 10:47:58;;;;;;;5.90;2.00;;;;;;;;;;5106187;28;20031;-57
2023/07/10 10:50:31;;;;;;;3.37;2.13;;;;;;;;;;5095997;28;20127;-57
2023/07/10 10:53:14;;;;;;;5.67;2.40;;;;;;;;;;5105508;28;20036;-57
2023/07/10 10:55:47;;;;;;;3.20;1.80;;;;;;;;;;5096346;28;20094;-57
2023/07/10 10:58:18;;;;;;;3.90;2.00;;;;;;;;;;5102879;28;20047;-57
2023/07/10 11:00:44;;;;;;;2.70;2.03;;;;;;;;;;5110755;28;20032;-57
2023/07/10 11:03:17;;;;;;;2.40;1.50;;;;;;;;;;5098076;28;20036;-56
2023/07/10 11:05:49;;;;;;;2.97;1.53;;;;;;;;;;5108546;28;20027;-57
2023/07/10 11:08:26;;;;;;;2.93;2.07;;;;;;;;;;5101103;28;20378;-56
2023/07/10 11:10:53;;;;;;;3.83;1.50;;;;;;;;;;5100725;28;20115;-56
2023/07/10 11:13:28;;;;;;;3.17;2.33;;;;;;;;;;5115431;28;20031;-57
2023/07/10 11:15:55;;;;;;;2.53;1.80;;;;;;;;;;5098252;28;20024;-56
2023/07/10 11:18:23;;;;;;;2.57;1.63;;;;;;;;;;5099005;28;20045;-56
2023/07/10 11:20:51;;;;;;;7.57;2.17;;;;;;;;;;5109583;28;20047;-58
2023/07/10 11:23:38;;;;;;;2.47;1.40;;;;;;;;;;5106837;28;20024;-56
2023/07/10 11:26:25;;;;;;;2.80;2.07;;;;;;;;;;5085755;28;20032;-57
2023/07/10 11:28:56;;;;;;;1.87;1.53;;;;;;;;;;5084426;28;20412;-57
2023/07/10 11:31:34;;;;;;;4.10;1.90;;;;;;;;;;5112684;28;20389;-57
2023/07/10 11:34:07;;;;;;;1.17;1.07;;;;;;;;;;5110319;28;20026;-56
2023/07/10 11:36:34;;;;;;;3.13;1.00;;;;;;;;;;5115375;28;20028;-57
2023/07/10 11:39:09;;;;;;;2.57;0.90;;;;;;;;;;5107770;28;20051;-57
2023/07/10 11:41:40;;;;;;;;;;;;;;;;;;5092655;28;20043;-56
2023/07/10 11:44:23;;;;;;;2.23;1.30;;;;;;;;;;5091968;28;20273;-56
2023/07/10 11:47:00;;;;;;;1.83;1.47;;;;;;;;;;5089368;28;20024;-56
2023/07/10 11:49:36;;;;;;;2.50;1.70;;;;;;;;;;5099016;28;20040;-56
2023/07/10 11:52:25;;;;;;;2.13;1.30;;;;;;;;;;5112201;28;20046;-57
2023/07/10 11:54:52;;;;;;;1.23;0.90;;;;;;;;;;5110525;27;20030;-56
2023/07/10 11:57:22;;;;;;;3.13;1.53;;;;;;;;;;5115130;28;20020;-56
2023/07/10 11:59:51;;;;;;;0.83;0.80;;;;;;;;;;5101914;28;20059;-56
2023/07/10 12:02:37;;;;;;;2.80;1.70;;;;;;;;;;5094195;28;20063;-57
2023/07/10 12:05:12;;;;;;;4.13;1.23;;;;;;;;;;5091659;28;20023;-56
2023/07/10 12:08:00;;;;;;;1.73;1.17;;;;;;;;;;5089156;28;20026;-56
2023/07/10 12:10:29;;;;;;;1.03;0.83;;;;;;;;;;5106334;28;20032;-57
2023/07/10 12:13:00;;;;;;;2.17;1.23;;;;;;;;;;5107995;28;20047;-57
2023/07/10 12:15:27;;;;;;;1.87;1.40;;;;;;;;;;5109545;28;20422;-57
2023/07/10 12:17:55;;;;;;;1.90;1.30;;;;;;;;;;5106010;28;20073;-57
2023/07/10 12:20:31;;;;;;;1.60;1.20;;;;;;;;;;5093832;28;20028;-56
2023/07/10 12:23:04;;;;;;;3.33;1.30;;;;;;;;;;5094884;28;20055;-56
2023/07/10 12:25:30;;;;;;;1.80;1.27;;;;;;;;;;5106846;28;20100;-57
2023/07/10 12:28:02;;;;;;;2.80;1.57;;;;;;;;;;5101035;28;20051;-57
2023/07/10 12:30:29;;;;;;;1.43;1.03;;;;;;;;;;5088451;28;20071;-57
2023/07/10 12:32:56;;;;;;;2.13;1.23;;;;;;;;;;5094598;28;20110;-57
2023/07/10 12:35:23;;;;;;;1.73;1.10;;;;;;;;;;5095717;28;20463;-56
2023/07/10 12:37:50;;;;;;;1.20;0.97;;;;;;;;;;5099170;28;20024;-56
2023/07/10 12:40:18;;;;;;;5.27;1.63;;;;;;;;;;5111649;28;20015;-57
2023/07/10 12:42:45;;;;;;;1.57;1.23;;;;;;;;;;5093595;28;20032;-56
2023/07/10 12:45:29;;;;;;;0.87;0.80;;;;;;;;;;5104124;28;20028;-57
2023/07/10 12:48:10;;;;;;;1.57;1.20;;;;;;;;;;5092256;28;20020;-56
2023/07/10 12:50:46;;;;;;;5.97;2.77;;;;;;;;;;5093999;28;20028;-56
2023/07/10 12:53:20;;;;;;;5.13;2.20;;;;;;;;;;5102443;28;20039;-56
2023/07/10 12:55:48;;;;;;;6.35;1.75;;;;;;;;;;5103357;28;20595;-56
2023/07/10 12:58:15;;;;;;;4.90;1.87;;;;;;;;;;5108198;28;20045;-57
2023/07/10 13:00:49;;;;;;;2.90;2.00;;;;;;;;;;5113660;28;20027;-56
2023/07/10 13:03:22;;;;;;;3.73;2.30;;;;;;;;;;5111525;28;20428;-57
2023/07/10 13:05:53;;;;;;;4.93;2.73;;;;;;;;;;5091154;28;20027;-56
2023/07/10 13:08:20;;;;;;;8.87;2.53;;;;;;;;;;5111413;28;20431;-57
2023/07/10 13:10:47;;;;;;;1.97;1.60;;;;;;;;;;5104610;28;20023;-56
2023/07/10 13:13:18;;;;;;;2.43;2.00;;;;;;;;;;5102347;28;20052;-57
2023/07/10 13:15:46;;;;;;;2.73;2.20;;;;;;;;;;5093329;28;20060;-56
2023/07/10 13:18:23;;;;;;;3.13;2.20;;;;;;;;;;5107964;28;20439;-57
2023/07/10 13:20:50;;;;;;;3.43;2.30;;;;;;;;;;5108653;28;20050;-57
2023/07/10 13:23:17;;;;;;;4.10;2.93;;;;;;;;;;5108062;28;20027;-57
2023/07/10 13:25:44;;;;;;;11.03;3.03;;;;;;;;;;5094076;28;20035;-57
2023/07/10 13:28:20;;;;;;;3.47;2.13;;;;;;;;;;5097747;28;20133;-57
2023/07/10 13:30:48;;;;;;;5.57;2.47;;;;;;;;;;5110592;28;20404;-56
2023/07/10 13:33:22;;;;;;;2.67;1.90;;;;;;;;;;5109689;28;20386;-56
2023/07/10 13:35:50;;;;;;;2.28;1.58;;;;;;;;;;5095710;28;20138;-56
2023/07/10 13:38:17;;;;;;;2.27;1.80;;;;;;;;;;5092082;28;20496;-56
2023/07/10 13:40:44;;;;;;;3.80;2.47;;;;;;;;;;5095994;28;20074;-57
2023/07/10 13:43:17;;;;;;;3.27;2.70;;;;;;;;;;5091539;28;20024;-57
2023/07/10 13:45:45;;;;;;;8.73;2.57;;;;;;;;;;5091972;28;20031;-56
2023/07/10 13:48:15;;;;;;;2.63;2.00;;;;;;;;;;5092545;28;20024;-57
2023/07/10 13:50:43;;;;;;;1.83;1.40;;;;;;;;;;5092582;28;20035;-56
2023/07/10 13:53:14;;;;;;;2.80;2.13;;;;;;;;;;5097189;28;20019;-57
2023/07/10 13:55:41;;;;;;;2.17;1.60;;;;;;;;;;5109309;28;20039;-57
2023/07/10 13:58:22;;;;;;;4.67;2.53;;;;;;;;;;5099599;28;20032;-56
2023/07/10 14:00:49;;;;;;;3.47;2.40;;;;;;;;;;5086989;28;20542;-56
2023/07/10 14:03:17;;;;;;;2.87;2.20;;;;;;;;;;5092441;28;20537;-57
2023/07/10 14:05:45;;;;;;;3.63;2.17;;;;;;;;;;5110424;28;20401;-56
2023/07/10 14:08:21;;;;;;;4.60;2.43;;;;;;;;;;5105871;28;20467;-57
2023/07/10 14:10:50;;;;;;;2.07;1.60;;;;;;;;;;5092557;28;20067;-57
2023/07/10 14:13:17;;;;;;;2.70;2.10;;;;;;;;;;5093213;28;20031;-57
2023/07/10 14:15:44;;;;;;;4.03;2.90;;;;;;;;;;5092327;28;20027;-56
2023/07/10 14:18:17;;;;;;;2.90;2.23;;;;;;;;;;5094089;28;20084;-57
2023/07/10 14:20:44;;;;;;;3.70;2.43;;;;;;;;;;5094840;28;20103;-57
2023/07/10 14:23:17;;;;;;;2.63;2.00;;;;;;;;;;5087656;28;20028;-56
2023/07/10 14:25:44;;;;;;;7.87;2.97;;;;;;;;;;5086500;28;20086;-57
2023/07/10 14:28:15;;;;;;;3.90;2.97;;;;;;;;;;5091275;28;20105;-57
2023/07/10 14:30:41;;;;;;;4.50;3.30;;;;;;;;;;5103373;28;20028;-56
2023/07/10 14:33:09;;;;;;;7.30;3.50;;;;;;;;;;5110380;28;20034;-56
2023/07/10 14:35:36;;;;;;;5.70;4.00;;;;;;;;;;5112392;28;20031;-57
2023/07/10 14:38:15;;;;;;;3.97;3.27;;;;;;;;;;5102908;28;20024;-56
2023/07/10 14:40:42;;;;;;;7.80;4.17;;;;;;;;;;5091977;28;20042;-56
2023/07/10 14:43:11;;;;;;;5.00;3.53;;;;;;;;;;5096716;28;20024;-56
2023/07/10 14:45:41;;;;;;;4.27;3.20;;;;;;;;;;5095761;28;20024;-57
2023/07/10 14:48:13;;;;;;;2.33;1.73;;;;;;;;;;5094033;28;20524;-57
2023/07/10 14:50:39;;;;;;;5.30;3.50;;;;;;;;;;5108820;28;20080;-57
2023/07/10 14:53:14;;;;;;;7.33;3.57;;;;;;;;;;5111997;28;20336;-57
2023/07/10 14:55:41;;;;;;;3.28;2.47;;;;;;;;;;5103745;28;20085;-57
2023/07/10 14:58:18;;;;;;;2.97;2.20;;;;;;;;;;5096956;28;20084;-57
2023/07/10 15:00:45;;;;;;;7.13;3.30;;;;;;;;;;5105739;28;20020;-57
2023/07/10 15:03:13;;;;;;;5.10;2.93;;;;;;;;;;5106569;28;20030;-57
2023/07/10 15:05:40;;;;;;;6.40;3.07;;;;;;;;;;5106909;28;20084;-57
2023/07/10 15:08:16;;;;;;;4.07;2.80;;;;;;;;;;5087791;28;20438;-57
2023/07/10 15:10:43;;;;;;;2.20;1.63;;;;;;;;;;5086772;28;20028;-57